Tables

Today Raw
Time Temp (F) Dwpt (F) Hum (%) Pres (inHg) Wnd Dir Wnd Spd (mph) Wnd Spd Gst (mph) Solr Rad (W/m^2) Cldbs (ft) Prcp Dly (in)
16:20 77.7 26.4 15 29.7 NW 8.9 12.3 542.19 12059 0.0
16:15 77.7 24.8 14 29.7 North 2.9 4.9 546.96 12423 0.0
16:09 77.7 26.4 15 29.7 SE 0.9 2.5 546.14 12059 0.0
16:04 77.9 26.6 15 29.71 NNW 2.9 4.9 548.79 12059 0.0
15:59 78.1 26.8 15 29.71 NW 6.7 9.8 549.2 12059 0.0
15:54 78.3 27.0 15 29.71 NNE 6.7 9.8 554.92 12059 0.0
15:49 78.3 25.2 14 29.71 NNW 12.3 15.0 565.59 12468 0.0
15:44 78.3 25.2 14 29.71 NW 3.6 4.9 570.83 12468 0.0
15:39 78.1 25.2 14 29.71 WSW 5.6 7.4 573.73 12423 0.0
15:34 77.9 23.2 13 29.72 NW 5.1 7.4 574.81 12832 0.0
15:29 78.1 25.2 14 29.72 NNE 5.6 7.4 574.46 12423 0.0
15:24 78.3 25.2 14 29.72 NNW 6.5 7.4 576.42 12468 0.0
15:19 78.3 25.2 14 29.72 West 4.5 7.4 584.37 12468 0.0
15:14 78.1 25.2 14 29.71 SW 6.0 7.4 584.91 12423 0.0
15:09 78.1 23.4 13 29.71 NNW 11.9 15.0 586.08 12832 0.0
15:04 77.9 23.2 13 29.72 NNW 7.6 9.8 593.75 12832 0.0
14:59 77.7 21.2 12 29.72 WSW 2.5 4.9 592.64 13241 0.0
14:53 77.5 22.8 13 29.72 NNW 4.0 4.9 588.98 12832 0.0
14:48 77.5 22.8 13 29.72 NNW 4.0 4.9 591.29 12832 0.0
14:43 77.5 22.8 13 29.72 NW 3.6 4.9 597.03 12832 0.0
14:38 77.4 22.8 13 29.72 West 4.0 4.9 596.09 12809 0.0
14:33 77.4 22.8 13 29.72 NNW 6.7 9.8 596.65 12809 0.0
14:28 77.2 20.7 12 29.73 North 7.6 9.8 595.96 13241 0.0
14:23 77.2 20.7 12 29.73 NNW 5.1 7.4 600.32 13241 0.0
14:18 77.0 22.5 13 29.73 NNW 4.0 4.9 599.59 12786 0.0
14:13 76.6 23.9 14 29.73 NW 2.7 4.9 595.36 12377 0.0
14:08 76.6 25.5 15 29.73 NNW 5.1 7.4 587.62 12014 0.0
14:03 76.5 27.0 16 29.73 NNW 11.9 12.3 588.45 11650 0.0
13:58 76.3 25.3 15 29.74 WSW 5.1 7.4 587.94 11991 0.0
13:53 76.1 25.2 15 29.73 SSW 4.9 7.4 582.42 11968 0.0
13:48 76.1 26.8 16 29.74 NNW 7.2 7.4 583.52 11605 0.0
13:43 75.9 25.0 15 29.74 NNE 2.9 4.9 583.33 11968 0.0
13:37 75.9 26.6 16 29.74 North 1.3 2.5 582.67 11605 0.0
13:32 75.9 26.6 16 29.74 NNE 5.8 7.4 579.16 11605 0.0
13:27 75.7 27.9 17 29.74 NNE 3.6 4.9 576.26 11264 0.0
13:22 75.7 26.4 16 29.74 NNW 9.6 12.3 576.92 11605 0.0
13:17 75.6 26.2 16 29.74 NW 14.3 17.5 579.54 11627 0.0
13:12 75.4 26.1 16 29.74 NNE 6.7 9.8 579.16 11605 0.0
13:07 75.4 26.1 16 29.74 West 7.4 9.8 573.83 11605 0.0
13:02 75.4 26.1 16 29.74 North 5.8 7.4 570.13 11605 0.0
12:57 75.2 24.4 15 29.74 NW 11.2 15.0 576.39 11945 0.0
12:52 74.8 25.7 16 29.74 NNW 5.1 7.4 575.72 11559 0.0
12:47 74.7 27.0 17 29.74 North 5.6 7.4 569.79 11241 0.0
12:42 74.5 25.3 16 29.74 NNW 5.1 7.4 566.95 11582 0.0
12:37 74.3 25.3 16 29.74 NW 5.1 7.4 569.47 11536 0.0
12:32 74.1 26.6 17 29.74 NNW 3.4 4.9 564.8 11195 0.0
12:27 73.9 26.4 17 29.75 NW 6.0 7.4 561.39 11195 0.0
12:21 73.8 26.2 17 29.74 North 13.0 17.5 560.41 11218 0.0
12:16 73.6 26.1 17 29.75 North 4.9 7.4 561.52 11195 0.0
12:11 73.6 26.1 17 29.74 NNW 5.1 7.4 556.62 11195 0.0
12:06 73.4 26.1 17 29.74 NW 8.1 9.8 554.98 11150 0.0
12:01 73.2 25.9 17 29.74 NE 7.2 7.4 552.23 11150 0.0
11:56 72.9 25.5 17 29.74 West 6.5 7.4 550.02 11173 0.0
11:51 72.9 25.5 17 29.74 NNW 6.0 7.4 549.2 11173 0.0
11:46 72.7 26.8 18 29.75 NNW 4.9 7.4 542.38 10832 0.0
11:41 72.3 25.2 17 29.75 WSW 4.9 4.9 540.77 11105 0.0
11:36 72.3 26.4 18 29.75 NNW 2.9 4.9 536.35 10832 0.0
11:31 72.1 26.4 18 29.75 North 8.7 9.8 531.84 10786 0.0
11:26 72.1 26.4 18 29.75 NW 5.8 7.4 531.33 10786 0.0
11:21 72.0 26.2 18 29.74 North 4.0 7.4 525.62 10809 0.0
11:16 72.0 27.5 19 29.74 NNW 3.6 4.9 520.09 10514 0.0
11:11 72.0 26.2 18 29.74 NNW 6.0 7.4 519.49 10809 0.0
11:05 71.6 25.9 18 29.74 NNW 6.7 7.4 511.41 10786 0.0
11:00 71.4 25.7 18 29.74 NNW 8.1 9.8 508.19 10786 0.0
10:55 71.2 25.5 18 29.74 NNW 6.7 9.8 506.24 10786 0.0
10:50 70.7 25.2 18 29.74 WSW 5.8 7.4 504.37 10741 0.0
10:45 70.3 24.8 18 29.74 North 5.8 7.4 498.63 10741 0.0
10:40 70.0 25.9 19 29.74 NNW 0.9 2.5 491.33 10423 0.0
10:35 69.6 25.5 19 29.74 NW 6.0 7.4 487.61 10423 0.0
10:30 68.9 25.0 19 29.74 SSW 2.9 4.9 480.57 10377 0.0
10:25 68.5 15.8 13 29.74 SW 3.6 4.9 476.97 12377 0.0
10:20 68.4 13.8 12 29.74 NW 6.0 7.4 469.93 12809 0.0
10:15 68.0 24.3 19 29.74 NW 6.5 7.4 465.95 10332 0.0
10:10 67.5 14.9 13 29.74 North 7.2 9.8 461.59 12355 0.0
10:05 67.1 14.7 13 29.74 West 5.8 7.4 453.99 12309 0.0
10:00 66.7 16.0 14 29.75 North 7.4 7.4 448.93 11923 0.0
09:55 66.4 17.4 15 29.74 NNW 5.6 7.4 441.29 11536 0.0
09:49 66.0 19.9 17 29.74 NNW 5.1 7.4 431.13 10877 0.0
09:44 65.7 19.8 17 29.74 NW 11.9 15.0 425.16 10832 0.0
09:39 65.5 22.1 19 29.74 NE 5.6 7.4 416.83 10264 0.0
09:34 65.1 21.9 19 29.74 NW 4.2 4.9 410.89 10218 0.0
09:29 64.9 23.0 20 29.74 NNW 6.7 7.4 402.68 9923 0.0
09:24 64.6 21.4 19 29.74 North 5.6 7.4 396.43 10218 0.0
09:19 64.4 23.7 21 29.74 North 5.1 7.4 385.64 9650 0.0
09:14 64.2 23.5 21 29.74 WNW 6.0 7.4 379.98 9650 0.0
09:09 63.9 24.3 22 29.74 North 8.3 9.8 371.24 9400 0.0
09:04 63.7 20.7 19 29.74 NW 8.1 9.8 362.53 10173 0.0
08:54 63.3 20.3 19 29.74 NW 4.2 7.4 347.56 10173 0.0
08:49 63.1 20.3 19 29.74 NNW 6.0 7.4 341.94 10127 0.0
08:44 62.8 19.9 19 29.74 North 5.6 7.4 335.41 10150 0.0
08:39 62.6 19.8 19 29.74 NW 7.6 9.8 327.39 10127 0.0
08:33 62.4 19.6 19 29.74 NE 4.2 4.9 320.03 10127 0.0
08:28 62.1 19.4 19 29.74 SW 4.2 7.4 314.0 10105 0.0
08:23 61.9 19.2 19 29.74 North 4.9 4.9 305.35 10105 0.0
08:18 61.5 20.1 20 29.73 North 5.8 7.4 297.05 9809 0.0
08:13 61.3 19.9 20 29.73 NNW 4.2 7.4 291.78 9809 0.0
08:08 61.0 19.6 20 29.73 NNE 1.8 4.9 285.05 9809 0.0
08:03 60.8 19.6 20 29.73 WNW 0.9 2.5 279.46 9764 0.0
07:58 60.6 19.4 20 29.73 NE 3.4 4.9 272.83 9764 0.0
07:53 60.4 19.2 20 29.73 North 4.2 7.4 267.75 9764 0.0
07:48 60.3 19.0 20 29.72 North 10.5 12.3 261.69 9786 0.0
07:43 60.1 20.1 21 29.73 NNE 7.2 7.4 257.46 9491 0.0
07:38 59.7 18.7 20 29.73 North 8.3 9.8 251.65 9718 0.0
07:33 59.5 19.6 21 29.72 NW 4.2 7.4 247.29 9468 0.0
07:28 59.2 19.2 21 29.72 NNW 4.9 7.4 242.43 9491 0.0
07:23 59.0 20.3 22 29.72 NNE 5.1 7.4 237.82 9195 0.0
07:17 59.0 18.0 20 29.72 NNW 10.5 15.0 232.45 9718 0.0
07:12 58.8 17.8 20 29.72 NNW 6.5 7.4 225.38 9718 0.0
07:07 58.8 17.8 20 29.71 NW 8.9 12.3 218.72 9718 0.0
07:02 58.8 17.8 20 29.71 NNW 7.4 9.8 210.39 9718 0.0
06:57 58.6 17.8 20 29.71 North 10.5 15.0 200.85 9673 0.0
06:52 58.5 18.7 21 29.71 North 7.6 9.8 190.66 9445 0.0
06:47 58.5 17.6 20 29.71 NNW 4.2 7.4 179.67 9695 0.0
06:42 58.3 18.5 21 29.7 North 6.5 7.4 167.01 9445 0.0
06:37 58.3 18.5 21 29.7 WNW 5.1 7.4 154.63 9445 0.0
06:32 58.1 18.3 21 29.7 North 4.2 4.9 140.9 9445 0.0
06:27 58.1 18.3 21 29.7 North 9.8 12.3 126.54 9445 0.0
06:22 58.3 18.5 21 29.7 NNW 10.5 15.0 112.42 9445 0.0
06:17 58.3 18.5 21 29.7 NW 6.7 7.4 96.83 9445 0.0
06:12 58.3 18.5 21 29.7 NW 9.2 12.3 63.28 9445 0.0
06:07 58.5 18.7 21 29.69 WNW 8.7 9.8 18.43 9445 0.0
06:01 58.5 18.7 21 29.69 NW 10.5 15.0 32.89 9445 0.0
05:56 58.6 18.9 21 29.69 NNW 6.7 9.8 7.67 9423 0.0
05:51 58.6 18.9 21 29.69 WNW 8.1 9.8 3.2 9423 0.0
05:46 58.8 19.0 21 29.69 NW 8.3 12.3 0.0 9445 0.0
05:41 58.8 19.0 21 29.69 NNW 6.7 9.8 0.0 9445 0.0
05:36 59.0 16.9 19 29.69 North 10.3 12.3 0.0 9968 0.0
05:26 59.5 18.5 20 29.69 NNW 6.5 9.8 0.0 9718 0.0
05:21 59.9 17.6 19 29.69 North 8.1 12.3 0.0 10014 0.0
05:16 60.3 17.8 19 29.68 North 11.4 15.0 0.0 10059 0.0
05:11 60.6 18.1 19 29.69 North 9.6 15.0 0.0 10059 0.0
05:06 61.0 18.5 19 29.69 North 11.4 15.0 0.0 10059 0.0
05:01 61.2 17.4 18 29.69 North 10.5 12.3 0.0 10355 0.0
04:56 61.3 16.2 17 29.69 NNW 8.3 12.3 0.0 10650 0.0
04:51 61.3 16.2 17 29.68 North 7.6 9.8 0.0 10650 0.0
04:45 61.3 16.2 17 29.68 North 8.9 9.8 0.0 10650 0.0
04:40 61.3 16.2 17 29.68 North 6.0 9.8 0.0 10650 0.0
04:35 61.3 17.4 18 29.68 NNW 5.1 7.4 0.0 10377 0.0
04:30 61.3 17.4 18 29.68 NNE 1.3 2.5 0.0 10377 0.0
04:25 61.3 16.2 17 29.68 North 2.0 2.5 0.0 10650 0.0
04:20 61.3 16.2 17 29.67 NNW 3.4 4.9 0.0 10650 0.0
04:15 61.5 16.3 17 29.68 NW 4.0 4.9 0.0 10673 0.0
04:10 61.7 16.5 17 29.68 North 5.6 7.4 0.0 10673 0.0
04:05 61.9 16.7 17 29.68 NNE 2.7 4.9 0.0 10673 0.0
04:00 62.1 16.7 17 29.68 NNW 2.7 4.9 0.0 10718 0.0
03:55 62.4 15.6 16 29.68 North 2.9 4.9 0.0 11036 0.0
03:50 63.0 16.2 16 29.68 North 2.5 4.9 0.0 11036 0.0
03:45 63.3 16.3 16 29.68 North 4.5 7.4 0.0 11082 0.0
03:40 63.7 15.3 15 29.67 NNW 3.6 4.9 0.0 11400 0.0
03:35 64.0 15.4 15 29.67 NNW 4.9 7.4 0.0 11445 0.0
03:29 64.4 15.8 15 29.68 North 4.9 7.4 0.0 11445 0.0
03:24 64.6 16.0 15 29.67 North 2.5 4.9 0.0 11445 0.0
03:19 64.8 17.6 16 29.67 ENE 0.9 2.5 0.0 11127 0.0
03:14 64.8 17.6 16 29.68 East 0.0 0.0 0.0 11127 0.0
03:09 64.9 17.8 16 29.68 ENE 0.0 0.0 0.0 11105 0.0
03:04 65.1 19.2 17 29.67 East 0.0 0.0 0.0 10832 0.0
02:54 65.5 19.6 17 29.67 ENE 0.0 0.0 0.0 10832 0.0
02:49 65.7 19.8 17 29.67 East 0.0 0.0 0.0 10832 0.0
02:44 65.7 18.3 16 29.67 East 0.0 0.0 0.0 11173 0.0
02:39 65.8 18.5 16 29.67 ENE 0.2 2.5 0.0 11150 0.0
02:34 66.0 17.1 15 29.67 NE 0.4 2.5 0.0 11514 0.0
02:29 66.2 18.7 16 29.67 NNE 0.0 0.0 0.0 11195 0.0
02:24 66.6 19.0 16 29.67 NE 0.0 0.0 0.0 11218 0.0
02:19 66.9 19.2 16 29.67 East 0.0 0.0 0.0 11241 0.0
02:13 67.1 18.0 15 29.67 ENE 0.0 0.0 0.0 11559 0.0
02:08 67.3 18.1 15 29.67 ENE 0.0 0.0 0.0 11582 0.0
02:04 67.5 16.7 14 29.68 NNE 0.4 2.5 0.0 11945 0.0
01:59 67.5 23.7 19 29.67 ENE 0.0 0.0 0.0 10355 0.0
01:54 67.6 23.9 19 29.67 East 0.0 0.0 0.0 10332 0.0
01:49 67.8 22.8 18 29.68 East 0.0 0.0 0.0 10627 0.0
01:44 67.8 24.1 19 29.67 ENE 0.2 2.5 0.0 10332 0.0
01:39 68.2 23.2 18 29.67 East 0.0 0.0 0.0 10627 0.0
01:34 68.4 23.2 18 29.67 NE 2.0 2.5 0.0 10673 0.0
01:29 68.5 22.1 17 29.67 NE 1.3 2.5 0.0 10945 0.0
01:24 68.7 23.5 18 29.67 East 0.0 0.0 0.0 10673 0.0
01:19 69.1 23.9 18 29.67 ENE 0.0 0.0 0.0 10673 0.0
01:14 69.3 23.9 18 29.67 ENE 0.0 0.0 0.0 10718 0.0
01:08 69.4 24.1 18 29.66 North 1.1 2.5 0.0 10695 0.0
01:03 69.6 24.3 18 29.66 North 3.6 4.9 0.0 10695 0.0
00:58 69.8 24.4 18 29.66 NNE 1.8 2.5 0.0 10718 0.0
00:53 70.0 24.6 18 29.67 North 2.9 4.9 0.0 10718 0.0
00:48 70.2 21.9 16 29.66 NNE 1.8 2.5 0.0 11377 0.0
00:43 70.5 22.3 16 29.66 NE 0.4 2.5 0.0 11355 0.0
00:38 70.7 22.3 16 29.67 North 4.2 4.9 0.0 11400 0.0
00:33 71.1 22.6 16 29.67 ENE 0.4 2.5 0.0 11423 0.0
00:28 71.4 23.0 16 29.67 NNW 2.9 4.9 0.0 11400 0.0
00:23 71.6 23.0 16 29.67 ENE 0.0 0.0 0.0 11445 0.0
00:22 71.6 24.4 17 29.67 NW 0.2 2.5 0.0 11127 0.0
00:17 72.0 23.4 16 29.67 North 4.2 4.9 0.0 11445 0.0
00:12 72.1 23.5 16 29.67 WNW 3.6 4.9 0.0 11445 0.0
00:07 72.3 22.1 15 29.66 North 0.0 0.0 0.0 11809 0.0
00:04 72.5 22.3 15 29.66 NNW 2.5 4.9 0.0 11809 0.0
Today Summary
Cldbs (ft) Dwpt (F) Hum (%) Prcp Dly (in) Pres (inHg) Solr Rad (W/m^2) Temp (F) Wnd Spd (mph) Wnd Spd Gst (mph)
Min 9195.0 13.8 12.0 0.0 29.66 0.0 58.1 0.0 0.0
Avg 10952.76 21.56 17.18 0.0 29.71 282.97 68.0 4.99 6.81
Max 13241.0 27.9 22.0 0.0 29.75 600.32 78.3 14.3 17.5
Day Summary
Cldbs (ft) Dwpt (F) Hum (%) Prcp Dly (in) Pres (inHg) Solr Rad (W/m^2) Temp (F) Wnd Spd (mph) Wnd Spd Gst (mph)
Min 9195.0 13.8 10.0 0.0 29.62 0.0 58.1 0.0 0.0
Avg 12024.33 22.57 15.09 0.0 29.69 251.46 73.71 4.71 6.51
Max 15036.0 33.4 22.0 0.0 29.75 688.84 93.6 14.3 19.9
Week Summary
Cldbs (ft) Dwpt (F) Hum (%) Prcp Dly (in) Pres (inHg) Solr Rad (W/m^2) Temp (F) Wnd Spd (mph) Wnd Spd Gst (mph)
Min 7173.0 12.0 10.0 0.0 29.62 0.0 53.2 0.0 0.0
Avg 12761.88 23.67 13.93 0.0 29.83 257.63 78.07 2.49 3.61
Max 15377.0 34.0 31.0 0.0 29.97 810.73 98.8 14.3 19.9
Month Summary
Cldbs (ft) Dwpt (F) Hum (%) Prcp Dly (in) Pres (inHg) Solr Rad (W/m^2) Temp (F) Wnd Spd (mph) Wnd Spd Gst (mph)
Min 2605.0 10.8 10.0 0.0 29.62 0.0 48.2 0.0 0.0
Avg 11160.95 22.54 17.94 0.0 29.93 212.65 69.89 2.53 3.71
Max 15377.0 39.7 69.0 0.08 30.23 835.58 98.8 15.4 19.9
Year Summary
Cldbs (ft) Dwpt (F) Hum (%) Prcp Dly (in) Pres (inHg) Solr Rad (W/m^2) Temp (F) Wnd Spd (mph) Wnd Spd Gst (mph)
Min 423.0 9.7 10.0 0.0 29.29 0.0 31.1 0.0 0.0
Avg 6266.54 39.86 46.73 0.02 30.03 144.03 65.67 1.4 2.16
Max 15786.0 68.4 99.0 1.32 30.64 913.02 105.8 35.3 45.0